Starbuck Airport

CKJ7 · 曼尼托巴, 加拿大

罗盘
风向 的 风向 200° Starbuck Airport 8/26
风: 16 kt, 4 beaufort

8 kt

14 kt
改变
0 1.000 2.000 3.000 4.000 5.000
OVC 2.800 ft
SPECI CYWG 290427Z 20016KT 15SM OVC028 M05/M09 A2945 RMK SC8 SLP988

METAR Starbuck Airport - CKJ7

Starbuck Airport是,加拿大中的小机场。 该机场有3条跑道: 8/26, 13/31 和 17/35. 该领域的国际民航组织标志是CKJ7.

这份报告是针对2022年11月28日 22:27, 当地时间在Winnipeg / James Armstrong Richardson International Airport进行的。

机场观察

风向为200°,速度为16 kt。

可见度为15 mi。

有乌云密布在2.800 ft的高度。 破损或更高的上限为2.800 ft。

温度为-5 °C,阵风为-16 °C。 露点为-9 °C,相对湿度为74%。 海平面上的气压为29,45 inHg (QNH)。

白天

今天,太阳从08:03升起,在16:34降落。 这适用于Starbuck Airport,世界夏令时可能有所不同。 当地时间与世界标准时间之间的时差为-6 小时。 当前,没有夏令时有效。

公司介绍

我们没有关于这个机场的公司信息。

体会

到Vliegles.nl去找飞行课程,跳伞和其他飞行体验。 浏览页面,了解Starbuck Airport附近所有可用的活动。 你也可以使用搜索功能来寻找你所在地附近的特定飞行课程、跳伞或其他飞行体验。

跑道

Id 标题 侧风 逆风 侧风 %
8/26 080°-260° 14 kt 8 kt 87 %
13/31 130°-310° 15 kt 5 kt 94 %
17/35 170°-350° 8 kt 14 kt 50 %

逆风成分最大的方向会被突出显示,并用于横风计算。 这并不一定意味着这个方向在使用。

乌云

2.800 ft OVC 乌云密布

温度 & 天气

温度 -5 °C
露点 -9 °C
相对湿度 74%
风寒 -16 °C
Kp-index 3 (0-9)

评论

SLP988海平面压力为29,49 inHg (29,49 inHg)
SC8

白天

日出
08:02 (6:42)
中午
12:17
日落
16:31

小工具

你想在你的网站上有一个关于Starbuck Airport的当前航空天气(METAR)的小部件吗?

显示HTML代码

我们和第三方通过cookies跟踪您在我们网站上的互联网行为。如果你继续,我们认为你同意我们的饼干政策